Hide A Way, Texas
Current Conditions -  °F | °C
As of 2:53 PM on Thursday 23 Oct 2014 (Local Time) from KTYR Reporting Station
Clear Clear  
Wind Chill: 75°   Ceiling: Unl
Heat Index: 75°   Visibility: 10mi
Dew Point: 53°   Wind: 0mph
Humidity: 46%   Direction: NA
Pressure: 30.11"   Gusts: NA
Location:  32.5326°N, 95.4249°W
Report Text: KTYR 231953Z 00000KT 10SM CLR 24/12 A3011 RMK AO2 SLP190 T02390117
Loading
Personal Weather Stations






























Interactive Weather Map
Tropical Storm Tracking
New forecast layout! Learn more

10-Day Weather Forecast

Advertisements
Track Severe Weather on mobile